Hill Air Force Base
KHIF : now visible

Airfield :











YOU CAN JOIN US ON...

 
LOGIN :

Register | Disclaimer

   EN    FR    IT 

 









Legend :    VFR   Marginal VFR   IFR   Intensive IFR   Very Intensive IFR
Visi :
Ceiling :
>= 8 km
>= 3000ft
5 to 8 km
1000 to 3000 ft
1500m to 5 km
500 to 1000 ft
800 to 1500m
200 to 500 ft
< 800m
< 200 ft
Symbols :   Thunderstorms  Fog  Heavy snow  Heavy precipitations  Wind > 20 kt






- Airport Elevation : 4789 ft


KHIF - Hill Air Force Base

CURRENT METAR :
  • 160358Z AUTO 08018G33KT 10SM CLR 21/02 A2980 RMK AO2 PK WND 07033/51 SLP035 T02090017

EXPIRED METARs :
  • 160258Z AUTO 07011G22KT 10SM CLR 21/03 A2978 RMK AO2 SLP030 T02130030 53000
  • 160245Z AUTO 11013G16KT 10SM CLR 21/03 A2977 RMK AO2 WSHFT 43 SLP027
  • 160158Z AUTO 34009KT 10SM CLR 24/04 A2976 RMK AO2 SLP021 T02350039

TAF TAF KHIF
Valid from the 15 at 05:00 until the 16 at 11:00 UTC


150500Z 1505/1611 09012G18KT 9999 BKN100 QNH2991INS
TEMPO 1506/1509 09020G30KT 510001
BECMG 1516/1517 27012KT 9999 SCT100 SCT150 QNH2985INS
BECMG 1602/1603 11015G25KT 9999 FEW150 510001 QNH2975INS
TEMPO 1604/1607 11025G35KT BKN030 520001 TX26/1521Z TN15/1513Z LAST NO AMDS AFT 1506 NEXT 1713
KZLC FIR / North America



MET'MAP, your aeronautical weather chart ! - Copyright ORBIFLY December 2007 - Disclaimer

ORBIFLY MET'MAP TEAM :

Programming & Development : Alexandra Zaïnal
Concept & original design : Baudouin d'Aumeries
Assistance for programming : Marc-Olivier Méhu
Technical & hardware support : Manuel Goepfert

Contact : metmap@orbifly.com




SOURCES & CREDITS :

   NOAA       Earth
Advisory